createdAt,value
2022-12-16T00:03:18.943Z,-3.55
2022-12-16T00:08:22.000Z,-3.56
2022-12-16T00:13:26.823Z,-3.61
2022-12-16T00:18:29.984Z,-3.59
2022-12-16T00:23:35.322Z,-3.62
2022-12-16T00:28:40.654Z,-3.63
2022-12-16T00:33:43.839Z,-3.66
2022-12-16T00:38:46.954Z,-3.68
2022-12-16T00:43:51.813Z,-3.75
2022-12-16T00:48:55.377Z,-3.74
2022-12-16T00:53:58.693Z,-3.77
2022-12-16T00:59:03.383Z,-3.84
2022-12-16T01:04:06.627Z,-3.81
2022-12-16T01:09:10.028Z,-3.89
2022-12-16T01:14:14.736Z,-3.88
2022-12-16T01:19:17.995Z,-3.92
2022-12-16T01:24:21.277Z,-3.91
2022-12-16T01:29:26.045Z,-3.93
2022-12-16T01:34:29.340Z,-3.97
2022-12-16T01:39:33.538Z,-4.02
2022-12-16T01:44:38.196Z,-4.03
2022-12-16T01:49:45.519Z,-4.06
2022-12-16T01:54:56.236Z,-4.10
2022-12-16T02:00:02.565Z,-4.15
2022-12-16T02:05:21.568Z,-4.18
2022-12-16T02:10:32.562Z,-4.20
2022-12-16T02:15:43.722Z,-4.23
2022-12-16T02:21:23.503Z,-4.23
2022-12-16T02:27:08.105Z,-4.20
2022-12-16T02:32:22.726Z,-4.27
2022-12-16T02:37:39.618Z,-4.28
2022-12-16T02:42:47.385Z,-4.28
2022-12-16T02:47:53.290Z,-4.40
2022-12-16T02:53:00.099Z,-4.50
2022-12-16T02:58:17.716Z,-4.55
2022-12-16T03:03:30.697Z,-4.67
2022-12-16T03:08:39.129Z,-4.74
2022-12-16T03:13:47.448Z,-4.79
2022-12-16T03:18:56.684Z,-4.86
2022-12-16T03:24:02.978Z,-4.88
2022-12-16T03:29:10.543Z,-4.91
2022-12-16T03:34:21.835Z,-4.92
2022-12-16T03:39:27.197Z,-4.92
2022-12-16T03:44:30.554Z,-4.89
2022-12-16T03:49:35.205Z,-4.86
2022-12-16T03:54:38.707Z,-4.87
2022-12-16T03:59:41.804Z,-4.84
2022-12-16T04:04:46.331Z,-4.83
2022-12-16T04:09:50.811Z,-4.80
2022-12-16T04:15:11.570Z,-4.75
2022-12-16T04:20:35.211Z,-4.77
2022-12-16T04:25:39.372Z,-4.76
2022-12-16T04:30:43.004Z,-4.72
2022-12-16T04:36:05.708Z,-4.70
2022-12-16T04:41:26.549Z,-4.70
2022-12-16T04:46:47.239Z,-4.70
2022-12-16T04:52:09.483Z,-4.72
2022-12-16T04:57:30.036Z,-4.71
2022-12-16T05:02:50.672Z,-4.70
2022-12-16T05:08:13.027Z,-4.70
2022-12-16T05:13:34.128Z,-4.69
2022-12-16T05:18:55.341Z,-4.72
2022-12-16T05:24:17.541Z,-4.72
2022-12-16T05:29:46.741Z,-4.72
2022-12-16T05:35:07.373Z,-4.74
2022-12-16T05:40:30.647Z,-4.72
2022-12-16T05:45:51.393Z,-4.71
2022-12-16T05:51:14.532Z,-4.68
2022-12-16T05:56:36.710Z,-4.66
2022-12-16T06:01:57.469Z,-4.64
2022-12-16T06:07:18.311Z,-4.63
2022-12-16T06:12:40.316Z,-4.59
2022-12-16T06:18:01.649Z,-4.55
2022-12-16T06:23:25.383Z,-4.54
2022-12-16T06:28:47.715Z,-4.53
2022-12-16T06:34:08.691Z,-4.54
2022-12-16T06:39:29.514Z,-4.58
2022-12-16T06:44:59.753Z,-4.64
2022-12-16T06:50:20.551Z,-4.77
2022-12-16T06:55:41.377Z,-4.87
2022-12-16T07:01:03.527Z,-4.91
2022-12-16T07:06:24.936Z,-4.95
2022-12-16T07:11:45.410Z,-5.01
2022-12-16T07:17:10.155Z,-5.09
2022-12-16T07:22:34.330Z,-5.14
2022-12-16T07:27:55.002Z,-5.21
2022-12-16T07:33:25.451Z,-5.28
2022-12-16T07:38:46.723Z,-5.34
2022-12-16T07:44:07.632Z,-5.37
2022-12-16T07:49:29.529Z,-5.38
2022-12-16T07:54:49.932Z,-5.39
2022-12-16T08:00:11.253Z,-5.44
2022-12-16T08:05:33.234Z,-5.47
2022-12-16T08:10:53.734Z,-5.40
2022-12-16T08:16:15.935Z,-5.34
2022-12-16T08:21:38.184Z,-5.20
2022-12-16T08:26:58.851Z,-5.11
2022-12-16T08:32:19.547Z,-5.05
2022-12-16T08:37:41.624Z,-4.97
2022-12-16T08:43:03.785Z,-4.87
2022-12-16T08:48:27.155Z,-4.86
2022-12-16T08:53:49.298Z,-4.77
2022-12-16T08:59:10.247Z,-4.73
2022-12-16T09:04:30.835Z,-4.73
2022-12-16T09:09:52.744Z,-4.72
2022-12-16T09:15:13.339Z,-4.60
2022-12-16T09:20:34.473Z,-4.54
2022-12-16T09:25:56.626Z,-4.36
2022-12-16T09:31:17.121Z,-4.16
2022-12-16T09:36:37.954Z,-3.98
2022-12-16T09:42:02.925Z,-3.83
2022-12-16T09:47:33.528Z,-3.62
2022-12-16T09:52:59.442Z,-3.44
2022-12-16T09:58:21.797Z,-3.34
2022-12-16T10:03:52.292Z,-3.22
2022-12-16T10:09:18.457Z,-3.18
2022-12-16T10:14:45.384Z,-3.03
2022-12-16T10:20:14.536Z,-2.97
2022-12-16T10:25:38.244Z,-2.93
2022-12-16T10:31:00.668Z,-2.84
2022-12-16T10:36:18.680Z,-2.70
2022-12-16T10:41:41.517Z,-2.59
2022-12-16T10:47:08.863Z,-2.41
2022-12-16T10:52:31.554Z,-2.11
2022-12-16T10:58:04.576Z,-2.15
2022-12-16T11:03:40.953Z,-2.16
2022-12-16T11:09:02.047Z,-2.17
2022-12-16T11:14:50.384Z,-2.13
2022-12-16T11:20:34.771Z,-2.20
2022-12-16T11:25:54.939Z,-2.18
2022-12-16T11:31:22.157Z,-2.18
2022-12-16T11:36:45.802Z,-2.16
2022-12-16T11:42:11.019Z,-2.11
2022-12-16T11:47:39.215Z,-2.08
2022-12-16T11:53:15.077Z,-2.03
2022-12-16T11:58:46.747Z,-1.95
2022-12-16T12:04:09.598Z,-1.88
2022-12-16T12:09:36.484Z,-1.72
2022-12-16T12:15:07.431Z,-1.67
2022-12-16T12:20:56.663Z,-1.68
2022-12-16T12:26:28.080Z,-1.63
2022-12-16T12:32:02.355Z,-1.67
2022-12-16T12:37:28.827Z,-1.59
2022-12-16T12:43:23.383Z,-1.59
2022-12-16T12:48:55.972Z,-1.56
2022-12-16T12:54:33.096Z,-1.51
2022-12-16T13:00:07.486Z,-1.47
2022-12-16T13:05:32.735Z,-1.44
2022-12-16T13:10:55.971Z,-1.46
2022-12-16T13:16:18.401Z,-1.56
2022-12-16T13:22:01.792Z,-1.59
2022-12-16T13:27:22.568Z,-1.60
2022-12-16T13:32:44.703Z,-1.57
2022-12-16T13:38:11.484Z,-1.56
2022-12-16T13:44:05.333Z,-1.56
2022-12-16T13:50:06.355Z,-1.57
2022-12-16T13:55:37.216Z,-1.58
2022-12-16T14:01:00.026Z,-1.58
2022-12-16T14:06:24.798Z,-1.58
2022-12-16T14:11:55.023Z,-1.59
2022-12-16T14:17:19.327Z,-1.64
2022-12-16T14:23:05.186Z,-1.70
2022-12-16T14:28:35.004Z,-1.76
2022-12-16T14:33:55.485Z,-1.82
2022-12-16T14:39:18.359Z,-1.85
2022-12-16T14:44:37.950Z,-1.92
2022-12-16T14:50:09.697Z,-1.96
2022-12-16T14:55:34.872Z,-2.03
2022-12-16T15:00:58.404Z,-2.09
2022-12-16T15:06:21.071Z,-2.13
2022-12-16T15:11:44.921Z,-2.02
2022-12-16T15:17:08.513Z,-1.93
2022-12-16T15:22:33.550Z,-1.93
2022-12-16T15:27:56.994Z,-1.95
2022-12-16T15:33:18.082Z,-1.94
2022-12-16T15:38:47.632Z,-1.95
2022-12-16T15:44:10.507Z,-2.05
2022-12-16T15:49:39.011Z,-2.14
2022-12-16T15:55:11.123Z,-2.18
2022-12-16T16:00:43.053Z,-2.22
2022-12-16T16:06:18.192Z,-2.20
2022-12-16T16:11:38.891Z,-2.18
2022-12-16T16:17:01.004Z,-2.15
2022-12-16T16:22:21.667Z,-2.07
2022-12-16T16:27:42.297Z,-2.07
2022-12-16T16:33:16.281Z,-2.08
2022-12-16T16:38:37.360Z,-2.07
2022-12-16T16:43:58.505Z,-2.05
2022-12-16T16:49:20.634Z,-2.02
2022-12-16T16:54:41.340Z,-1.94
2022-12-16T17:00:02.358Z,-1.91
2022-12-16T17:05:25.542Z,-1.88
2022-12-16T17:10:46.556Z,-1.84
2022-12-16T17:16:07.249Z,-1.81
2022-12-16T17:21:37.805Z,-1.79
2022-12-16T17:27:00.434Z,-1.79
2022-12-16T17:32:21.481Z,-1.71
2022-12-16T17:37:45.087Z,-1.63
2022-12-16T17:43:05.664Z,-1.58
2022-12-16T17:48:26.535Z,-1.49
2022-12-16T17:53:54.550Z,-1.44
2022-12-16T17:59:18.105Z,-1.40
2022-12-16T18:04:39.278Z,-1.39
2022-12-16T18:10:01.155Z,-1.34
2022-12-16T18:15:24.949Z,-1.34
2022-12-16T18:20:45.650Z,-1.29
2022-12-16T18:26:17.852Z,-1.25
2022-12-16T18:31:41.528Z,-1.27
2022-12-16T18:37:02.203Z,-1.29
2022-12-16T18:42:24.417Z,-1.30
2022-12-16T18:47:45.345Z,-1.29
2022-12-16T18:53:06.605Z,-1.29
2022-12-16T18:58:50.111Z,-1.28
2022-12-16T19:04:09.680Z,-1.24
2022-12-16T19:09:30.418Z,-1.23
2022-12-16T19:14:52.496Z,-1.22
2022-12-16T19:20:13.588Z,-1.22
2022-12-16T19:25:34.074Z,-1.23
2022-12-16T19:30:56.511Z,-1.24
2022-12-16T19:36:16.883Z,-1.27
2022-12-16T19:42:01.448Z,-1.33
2022-12-16T19:47:23.991Z,-1.40
2022-12-16T19:52:44.633Z,-1.46
2022-12-16T19:58:05.089Z,-1.50
2022-12-16T20:03:27.173Z,-1.56
2022-12-16T20:08:47.755Z,-1.63
2022-12-16T20:14:11.092Z,-1.69
2022-12-16T20:19:33.338Z,-1.77
2022-12-16T20:24:56.272Z,-1.86
2022-12-16T20:30:17.580Z,-1.91
2022-12-16T20:35:39.624Z,-1.97
2022-12-16T20:41:00.173Z,-2.00
2022-12-16T20:46:20.843Z,-1.98
2022-12-16T20:51:42.821Z,-1.95
2022-12-16T20:57:05.951Z,-1.94
2022-12-16T21:02:33.568Z,-1.91
2022-12-16T21:07:56.669Z,-1.88
2022-12-16T21:13:36.900Z,-1.87
2022-12-16T21:18:57.490Z,-1.85
2022-12-16T21:24:19.238Z,-1.83
2022-12-16T21:29:40.191Z,-1.81
2022-12-16T21:34:57.202Z,-1.81
2022-12-16T21:40:19.492Z,-1.83
2022-12-16T21:45:40.306Z,-1.84
2022-12-16T21:51:00.997Z,-1.82
2022-12-16T21:56:23.898Z,-1.81
2022-12-16T22:01:44.680Z,-1.79
2022-12-16T22:07:05.421Z,-1.76
2022-12-16T22:12:27.616Z,-1.72
2022-12-16T22:17:54.464Z,-1.71
2022-12-16T22:23:22.092Z,-1.69
2022-12-16T22:28:48.856Z,-1.68
2022-12-16T22:34:10.907Z,-1.66
2022-12-16T22:39:31.450Z,-1.62
2022-12-16T22:44:53.195Z,-1.58
2022-12-16T22:50:17.440Z,-1.56
2022-12-16T22:55:38.306Z,-1.55
2022-12-16T23:01:00.663Z,-1.58
2022-12-16T23:06:22.863Z,-1.58
2022-12-16T23:11:50.065Z,-1.54
2022-12-16T23:17:12.284Z,-1.55
2022-12-16T23:22:32.815Z,-1.50
2022-12-16T23:27:53.464Z,-1.47
2022-12-16T23:33:20.820Z,-1.45
2022-12-16T23:38:41.379Z,-1.44
2022-12-16T23:44:01.692Z,-1.43
2022-12-16T23:49:23.667Z,-1.39
2022-12-16T23:54:44.103Z,-1.37
